EGHH

Bournemouth Airport

Bournemouth, United Kingdom
TAF EGHH 210802Z 2109/2118 10005KT CAVOK PROB30 TEMPO 2109/2112 5000 +SHRA TSGR BKN045CB
Issued Valid From Valid To
Apr-21 @ 08:02 UTC
(an hour ago)
Apr-21 @ 09:00 UTC
(28 minutes ago)
Apr-21 @ 18:00 UTC
(in 9 hours)
Apr-21 @ 09:00 to Apr-21 @ 18:00
TAF EGHH 210802Z 2109/2118 10005KT CAVOK
Wind Visibility Clouds Conditions
100° at 5 knots 10,000+ meters
  • No significant clouds
Temporary  (Probability 30%) Apr-21 @ 09:00 to Apr-21 @ 12:00
PROB30 TEMPO 2109/2112 5000 +SHRA TSGR BKN045CB
Visibility Clouds Conditions
5,005 meters
  • Broken at 4,500' AGL
  • Heavy Rain
  • Thunderstorm
  • Hail
TAF EGHH 210802Z 2109/2118 10005KT CAVOK PROB30 TEMPO 2109/2112 5000 +SHRA TSGR BKN045CB
Issued Apr-21 @ 08:02 UTC
(an hour ago)
Valid From Apr-21 @ 09:00 UTC
(28 minutes ago)
Valid To Apr-21 @ 18:00 UTC
(in 9 hours)
Apr-21 @ 09:00 - Apr-21 @ 18:00
Wind Visibility
100° at 5 knots 10,000+ meters
Clouds
  • No significant clouds
Conditions
Probability 30% Temporary Apr-21 @ 09:00 - Apr-21 @ 12:00
Clouds
  • Broken at 4,500' AGL
Conditions
  • Heavy Rain
  • Thunderstorm
  • Hail